Skip Navigation LinksHome page > Tools > METAR decoder Skip Navigation Links

METAR decoder

Settings

METAR

Chicago O'Hare Intl, Chicago

For information only: do not use for flight planning or navigation.
Latest weather
Observation time Sunday, December 21, 2014 1:51 PM CST
Local time Sunday, December 21, 2014 2:09 PM CST
Flight conditions Visual Meteorological Conditions
Winds
Wind direction South (190°)
Wind speed 15 mph
Visibility 8 mi.
Sky condition
Ceiling 3,800 ft. overcast
Cloud layer few clouds 2,900 ft.
Cloud layer overcast 3,800 ft.
Temperature 36°F
Dewpoint 28°F
Altimeter 30.09 in.Hg
Derived measurements
Relative humidity 73%
Wind chill 27°F
Density altitude -1003 ft.
Sea-level pressure 30.11 in.Hg
Remarks
Automated weather observing station with precipitation discriminator.
METAR KORD 211951Z 19013KT 8SM FEW029 OVC038 02/M02 A3009 RMK AO2 SLP195 T00221022

InnerDrive.Weather 4.0.5399.0 Release CLR 4.0.30319.34014
Copyright ©2014 Inner Drive Technology. All rights reserved. Portions Copyright ©1986-2014 David Braverman.

Find weather

Site navigation


Skip Navigation Links

Place info

Page info

PayPal - The safer, easier way to pay online!

Return home.

Copyright ©2014 Inner Drive Technology. Purveyors of fine, hand-crafted computer software. Page printed 2014-12-21T20:09:42 UTC.